Dellwood, OR

5:29 AM PDT on August 05, 2015 (GMT -0700)
Upstream Alpacas | | Change Station
CLOSE
Current Station
Personal Weather Station
Location: Gaston, OR
Elevation: 197 ft
Nearby Weather Stations

Elev 197 ft 45.44 °N, 123.18 °W | Updated 1 minute ago

Clear
Clear
45.5 °F
Feels Like 46 °F
N
1.7
Wind Variable Wind from West

Today
High -- | Low -- °F
--% Chance of Precip.
Yesterday
High -- | Low -- °F
Precip. -- in
6:01 AM 8:35 PM
Waning Gibbous, 67% visible
Pressure 30.09 in
Visibility 10.0 miles
Clouds Mostly Cloudy 2600 ft
Windchill 46 °F
Dew Point 45 °F
Humidity 99%
Rainfall 0.00 in
Snow Depth Not available.
UV 0 out of 12
Pollen 4.40 out of 12
Air Quality Not available.
Flu Activity Not available.
METAR KHIO 051153Z AUTO 00000KT 10SM BKN026 12/09 A3010 RMK AO2 SLP188 T01220094 10150 20111 51010

More Conditions Fewer Conditions

Pressure 30.09 in
Visibility 10.0 miles
Clouds Mostly Cloudy 2600 ft
Windchill 46 °F
Dew Point 45 °F
Humidity 99%
Rainfall 0.00 in
Snow Depth Not available.
UV 0 out of 12
Pollen 4.40 out of 12
Air Quality Not available.
Flu Activity Not available.
METAR KHIO 051153Z AUTO 00000KT 10SM BKN026 12/09 A3010 RMK AO2 SLP188 T01220094 10150 20111 51010

More Conditions Fewer Conditions

10-Day Weather Forecast

×

Almanac

Astronomy

Aug. 05, 2015 Rise Set
Actual Time
Civil Twilight
Nautical Twilight
Astronomical Twilight
Moon
Length of Visible Light
Length of Day
Tomorrow will be .
, % of the Moon is Illuminated

Today's Extremes

State Highs State Lows

Community

WunderPhotos

Upload Photos

1,844,171 photos uploaded!

WunderBlogs® & News

Nearby

Air Quality

  Air Quality AQ Index Pollutant
Not available.

Snow Depth

Station Depth Elevation

Earthquake Activity

City Distance Mag. Time & Date
Minimum magnitude displayed is 2.5.

Coastal Water Temperatures

Place Temperature

Stations

Nearby Weather Stations

Station Location Temp. Windchill Dew Point Humidity Wind Precip. Elev Updated Type